sensor_id;sensor_type;location;lat;lon;timestamp;temperature;humidity
16347;DHT22;8283;48.504;13.734;2024-02-23T00:02:08;10.90;85.00
16347;DHT22;8283;48.504;13.734;2024-02-23T00:04:27;10.80;85.10
16347;DHT22;8283;48.504;13.734;2024-02-23T00:06:46;10.80;85.10
16347;DHT22;8283;48.504;13.734;2024-02-23T00:09:06;10.80;85.20
16347;DHT22;8283;48.504;13.734;2024-02-23T00:11:25;10.80;85.40
16347;DHT22;8283;48.504;13.734;2024-02-23T00:13:47;10.80;85.40
16347;DHT22;8283;48.504;13.734;2024-02-23T00:16:06;10.80;85.60
16347;DHT22;8283;48.504;13.734;2024-02-23T00:18:25;10.80;85.60
16347;DHT22;8283;48.504;13.734;2024-02-23T00:20:46;10.80;85.70
16347;DHT22;8283;48.504;13.734;2024-02-23T00:23:06;10.80;85.90
16347;DHT22;8283;48.504;13.734;2024-02-23T00:25:25;10.80;85.80
16347;DHT22;8283;48.504;13.734;2024-02-23T00:27:44;10.80;86.00
16347;DHT22;8283;48.504;13.734;2024-02-23T00:30:06;10.90;86.00
16347;DHT22;8283;48.504;13.734;2024-02-23T00:32:26;10.90;86.00
16347;DHT22;8283;48.504;13.734;2024-02-23T00:34:45;10.90;86.00
16347;DHT22;8283;48.504;13.734;2024-02-23T00:37:05;10.90;85.90
16347;DHT22;8283;48.504;13.734;2024-02-23T00:39:24;10.90;85.90
16347;DHT22;8283;48.504;13.734;2024-02-23T00:41:45;10.90;86.00
16347;DHT22;8283;48.504;13.734;2024-02-23T00:44:05;10.90;86.00
16347;DHT22;8283;48.504;13.734;2024-02-23T00:46:24;10.90;86.00
16347;DHT22;8283;48.504;13.734;2024-02-23T00:48:43;10.90;86.00
16347;DHT22;8283;48.504;13.734;2024-02-23T00:51:03;10.90;85.90
16347;DHT22;8283;48.504;13.734;2024-02-23T00:53:22;10.90;86.00
16347;DHT22;8283;48.504;13.734;2024-02-23T00:55:41;10.90;86.00
16347;DHT22;8283;48.504;13.734;2024-02-23T00:58:01;10.90;86.10
16347;DHT22;8283;48.504;13.734;2024-02-23T01:00:20;10.90;86.10
16347;DHT22;8283;48.504;13.734;2024-02-23T01:02:39;10.90;86.30
16347;DHT22;8283;48.504;13.734;2024-02-23T01:04:59;10.90;86.30
16347;DHT22;8283;48.504;13.734;2024-02-23T01:07:18;10.90;86.40
16347;DHT22;8283;48.504;13.734;2024-02-23T01:09:37;10.90;86.40
16347;DHT22;8283;48.504;13.734;2024-02-23T01:11:57;10.90;86.40
16347;DHT22;8283;48.504;13.734;2024-02-23T01:14:16;10.90;86.50
16347;DHT22;8283;48.504;13.734;2024-02-23T01:16:35;10.90;86.60
16347;DHT22;8283;48.504;13.734;2024-02-23T01:18:55;11.00;86.70
16347;DHT22;8283;48.504;13.734;2024-02-23T01:21:14;11.00;87.10
16347;DHT22;8283;48.504;13.734;2024-02-23T01:23:33;11.00;86.80
16347;DHT22;8283;48.504;13.734;2024-02-23T01:25:53;11.00;86.50
16347;DHT22;8283;48.504;13.734;2024-02-23T01:28:13;11.00;86.40
16347;DHT22;8283;48.504;13.734;2024-02-23T01:30:32;11.00;86.60
16347;DHT22;8283;48.504;13.734;2024-02-23T01:32:51;10.90;86.70
16347;DHT22;8283;48.504;13.734;2024-02-23T01:35:11;11.00;86.90
16347;DHT22;8283;48.504;13.734;2024-02-23T01:37:31;11.00;87.10
16347;DHT22;8283;48.504;13.734;2024-02-23T01:39:50;11.00;87.40
16347;DHT22;8283;48.504;13.734;2024-02-23T01:42:09;11.00;87.40
16347;DHT22;8283;48.504;13.734;2024-02-23T01:44:29;11.00;87.60
16347;DHT22;8283;48.504;13.734;2024-02-23T01:46:48;11.00;87.60
16347;DHT22;8283;48.504;13.734;2024-02-23T01:49:09;11.10;87.80
16347;DHT22;8283;48.504;13.734;2024-02-23T01:51:28;11.10;87.80
16347;DHT22;8283;48.504;13.734;2024-02-23T01:53:51;11.20;87.80
16347;DHT22;8283;48.504;13.734;2024-02-23T01:56:12;11.30;88.00
16347;DHT22;8283;48.504;13.734;2024-02-23T01:58:35;11.30;88.00
16347;DHT22;8283;48.504;13.734;2024-02-23T02:00:54;11.40;88.20
16347;DHT22;8283;48.504;13.734;2024-02-23T02:03:13;10.70;87.20
16347;DHT22;8283;48.504;13.734;2024-02-23T02:05:32;11.50;87.80
16347;DHT22;8283;48.504;13.734;2024-02-23T02:07:53;11.50;88.20
16347;DHT22;8283;48.504;13.734;2024-02-23T02:10:18;11.60;87.60
16347;DHT22;8283;48.504;13.734;2024-02-23T02:12:37;11.60;87.50
16347;DHT22;8283;48.504;13.734;2024-02-23T02:14:56;11.60;87.30
16347;DHT22;8283;48.504;13.734;2024-02-23T02:17:16;11.60;87.20
16347;DHT22;8283;48.504;13.734;2024-02-23T02:19:35;11.70;87.30
16347;DHT22;8283;48.504;13.734;2024-02-23T02:21:56;11.70;87.10
16347;DHT22;8283;48.504;13.734;2024-02-23T02:24:15;11.70;87.00
16347;DHT22;8283;48.504;13.734;2024-02-23T02:26:35;11.70;86.90
16347;DHT22;8283;48.504;13.734;2024-02-23T02:28:56;11.70;86.80
16347;DHT22;8283;48.504;13.734;2024-02-23T02:31:15;11.70;86.80
16347;DHT22;8283;48.504;13.734;2024-02-23T02:33:34;11.70;86.80
16347;DHT22;8283;48.504;13.734;2024-02-23T02:35:54;11.70;86.70
16347;DHT22;8283;48.504;13.734;2024-02-23T02:38:13;11.70;86.70
16347;DHT22;8283;48.504;13.734;2024-02-23T02:40:33;11.70;86.70
16347;DHT22;8283;48.504;13.734;2024-02-23T02:42:52;11.70;86.70
16347;DHT22;8283;48.504;13.734;2024-02-23T02:45:12;11.70;86.40
16347;DHT22;8283;48.504;13.734;2024-02-23T02:47:31;12.10;86.70
16347;DHT22;8283;48.504;13.734;2024-02-23T02:49:51;11.70;86.50
16347;DHT22;8283;48.504;13.734;2024-02-23T02:52:10;11.70;86.60
16347;DHT22;8283;48.504;13.734;2024-02-23T02:54:30;11.70;86.50
16347;DHT22;8283;48.504;13.734;2024-02-23T02:56:49;11.70;86.50
16347;DHT22;8283;48.504;13.734;2024-02-23T02:59:10;11.70;86.50
16347;DHT22;8283;48.504;13.734;2024-02-23T03:01:29;11.70;86.50
16347;DHT22;8283;48.504;13.734;2024-02-23T03:03:48;11.60;86.30
16347;DHT22;8283;48.504;13.734;2024-02-23T03:06:08;11.60;86.20
16347;DHT22;8283;48.504;13.734;2024-02-23T03:08:27;11.60;86.40
16347;DHT22;8283;48.504;13.734;2024-02-23T03:10:46;11.60;86.40
16347;DHT22;8283;48.504;13.734;2024-02-23T03:13:06;11.60;86.40
16347;DHT22;8283;48.504;13.734;2024-02-23T03:15:25;11.50;86.40
16347;DHT22;8283;48.504;13.734;2024-02-23T03:17:45;11.50;86.40
16347;DHT22;8283;48.504;13.734;2024-02-23T03:20:05;11.50;86.50
16347;DHT22;8283;48.504;13.734;2024-02-23T03:22:27;11.50;86.40
16347;DHT22;8283;48.504;13.734;2024-02-23T03:24:47;11.50;86.40
16347;DHT22;8283;48.504;13.734;2024-02-23T03:27:06;11.50;86.40
16347;DHT22;8283;48.504;13.734;2024-02-23T03:29:26;11.40;86.30
16347;DHT22;8283;48.504;13.734;2024-02-23T03:31:48;11.40;86.40
16347;DHT22;8283;48.504;13.734;2024-02-23T03:34:07;11.40;86.40
16347;DHT22;8283;48.504;13.734;2024-02-23T03:36:26;11.40;86.50
16347;DHT22;8283;48.504;13.734;2024-02-23T03:38:47;11.40;86.60
16347;DHT22;8283;48.504;13.734;2024-02-23T03:41:06;11.40;86.80
16347;DHT22;8283;48.504;13.734;2024-02-23T03:43:25;11.40;86.50
16347;DHT22;8283;48.504;13.734;2024-02-23T03:45:45;11.30;86.50
16347;DHT22;8283;48.504;13.734;2024-02-23T03:48:05;11.30;86.60
16347;DHT22;8283;48.504;13.734;2024-02-23T03:50:25;11.30;86.70
16347;DHT22;8283;48.504;13.734;2024-02-23T03:52:44;11.30;86.60
16347;DHT22;8283;48.504;13.734;2024-02-23T03:55:04;11.30;86.60
16347;DHT22;8283;48.504;13.734;2024-02-23T03:57:23;11.20;86.70
16347;DHT22;8283;48.504;13.734;2024-02-23T03:59:56;11.20;86.80
16347;DHT22;8283;48.504;13.734;2024-02-23T04:02:16;11.20;87.90
16347;DHT22;8283;48.504;13.734;2024-02-23T04:04:35;11.20;86.90
16347;DHT22;8283;48.504;13.734;2024-02-23T04:06:54;11.20;86.90
16347;DHT22;8283;48.504;13.734;2024-02-23T04:09:13;11.20;87.00
16347;DHT22;8283;48.504;13.734;2024-02-23T04:11:33;11.10;86.90
16347;DHT22;8283;48.504;13.734;2024-02-23T04:13:52;11.10;86.90
16347;DHT22;8283;48.504;13.734;2024-02-23T04:16:11;11.10;87.00
16347;DHT22;8283;48.504;13.734;2024-02-23T04:18:30;11.10;87.10
16347;DHT22;8283;48.504;13.734;2024-02-23T04:20:51;11.10;87.20
16347;DHT22;8283;48.504;13.734;2024-02-23T04:23:10;11.10;87.30
16347;DHT22;8283;48.504;13.734;2024-02-23T04:25:30;11.10;87.20
16347;DHT22;8283;48.504;13.734;2024-02-23T04:27:49;11.10;87.10
16347;DHT22;8283;48.504;13.734;2024-02-23T04:30:10;11.00;86.50
16347;DHT22;8283;48.504;13.734;2024-02-23T04:32:30;11.00;86.30
16347;DHT22;8283;48.504;13.734;2024-02-23T04:34:49;10.90;86.00
16347;DHT22;8283;48.504;13.734;2024-02-23T04:37:09;10.90;85.90
16347;DHT22;8283;48.504;13.734;2024-02-23T04:39:28;10.80;85.80
16347;DHT22;8283;48.504;13.734;2024-02-23T04:41:47;11.00;86.00
16347;DHT22;8283;48.504;13.734;2024-02-23T04:44:07;10.80;85.90
16347;DHT22;8283;48.504;13.734;2024-02-23T04:46:26;10.70;85.90
16347;DHT22;8283;48.504;13.734;2024-02-23T04:48:45;10.70;86.00
16347;DHT22;8283;48.504;13.734;2024-02-23T04:51:05;10.70;86.00
16347;DHT22;8283;48.504;13.734;2024-02-23T04:53:25;10.60;86.00
16347;DHT22;8283;48.504;13.734;2024-02-23T04:55:45;10.60;86.00
16347;DHT22;8283;48.504;13.734;2024-02-23T04:58:06;10.60;86.20
16347;DHT22;8283;48.504;13.734;2024-02-23T05:00:25;10.60;86.10
16347;DHT22;8283;48.504;13.734;2024-02-23T05:02:51;10.60;86.00
16347;DHT22;8283;48.504;13.734;2024-02-23T05:05:11;10.50;86.00
16347;DHT22;8283;48.504;13.734;2024-02-23T05:07:34;10.50;85.80
16347;DHT22;8283;48.504;13.734;2024-02-23T05:09:53;10.50;86.10
16347;DHT22;8283;48.504;13.734;2024-02-23T05:12:12;10.50;85.90
16347;DHT22;8283;48.504;13.734;2024-02-23T05:14:31;10.40;85.70
16347;DHT22;8283;48.504;13.734;2024-02-23T05:16:50;10.40;85.70
16347;DHT22;8283;48.504;13.734;2024-02-23T05:19:10;10.40;85.70
16347;DHT22;8283;48.504;13.734;2024-02-23T05:21:29;10.40;85.80
16347;DHT22;8283;48.504;13.734;2024-02-23T05:23:50;10.40;85.80
16347;DHT22;8283;48.504;13.734;2024-02-23T05:26:10;10.40;85.90
16347;DHT22;8283;48.504;13.734;2024-02-23T05:28:30;10.30;85.90
16347;DHT22;8283;48.504;13.734;2024-02-23T05:30:49;10.40;86.00
16347;DHT22;8283;48.504;13.734;2024-02-23T05:33:08;10.40;86.10
16347;DHT22;8283;48.504;13.734;2024-02-23T05:35:28;10.30;86.00
16347;DHT22;8283;48.504;13.734;2024-02-23T05:37:47;10.40;86.00
16347;DHT22;8283;48.504;13.734;2024-02-23T05:40:06;10.40;86.00
16347;DHT22;8283;48.504;13.734;2024-02-23T05:42:29;10.30;86.10
16347;DHT22;8283;48.504;13.734;2024-02-23T05:44:48;10.40;86.20
16347;DHT22;8283;48.504;13.734;2024-02-23T05:47:07;10.40;86.30
16347;DHT22;8283;48.504;13.734;2024-02-23T05:49:27;10.40;86.10
16347;DHT22;8283;48.504;13.734;2024-02-23T05:51:46;10.40;85.70
16347;DHT22;8283;48.504;13.734;2024-02-23T05:54:06;10.40;85.70
16347;DHT22;8283;48.504;13.734;2024-02-23T05:56:25;10.30;86.40
16347;DHT22;8283;48.504;13.734;2024-02-23T05:58:44;10.30;85.90
16347;DHT22;8283;48.504;13.734;2024-02-23T06:01:04;10.20;85.90
16347;DHT22;8283;48.504;13.734;2024-02-23T06:03:26;10.20;85.70
16347;DHT22;8283;48.504;13.734;2024-02-23T06:05:46;10.20;85.70
16347;DHT22;8283;48.504;13.734;2024-02-23T06:08:06;11.20;86.20
16347;DHT22;8283;48.504;13.734;2024-02-23T06:10:25;10.20;85.40
16347;DHT22;8283;48.504;13.734;2024-02-23T06:12:45;10.10;85.40
16347;DHT22;8283;48.504;13.734;2024-02-23T06:15:04;10.10;85.50
16347;DHT22;8283;48.504;13.734;2024-02-23T06:17:24;10.20;85.70
16347;DHT22;8283;48.504;13.734;2024-02-23T06:19:43;10.10;85.70
16347;DHT22;8283;48.504;13.734;2024-02-23T06:22:03;10.20;85.70
16347;DHT22;8283;48.504;13.734;2024-02-23T06:24:22;10.10;85.50
16347;DHT22;8283;48.504;13.734;2024-02-23T06:26:42;10.10;85.40
16347;DHT22;8283;48.504;13.734;2024-02-23T06:29:01;10.00;85.30
16347;DHT22;8283;48.504;13.734;2024-02-23T06:31:21;10.00;85.30
16347;DHT22;8283;48.504;13.734;2024-02-23T06:33:40;10.00;85.40
16347;DHT22;8283;48.504;13.734;2024-02-23T06:36:00;10.00;85.40
16347;DHT22;8283;48.504;13.734;2024-02-23T06:38:20;9.90;85.50
16347;DHT22;8283;48.504;13.734;2024-02-23T06:40:39;9.90;85.40
16347;DHT22;8283;48.504;13.734;2024-02-23T06:42:58;9.90;85.30
16347;DHT22;8283;48.504;13.734;2024-02-23T06:45:18;9.80;85.20
16347;DHT22;8283;48.504;13.734;2024-02-23T06:47:38;9.80;85.10
16347;DHT22;8283;48.504;13.734;2024-02-23T06:49:59;9.80;85.20
16347;DHT22;8283;48.504;13.734;2024-02-23T06:52:19;9.70;85.30
16347;DHT22;8283;48.504;13.734;2024-02-23T06:54:38;9.70;85.30
16347;DHT22;8283;48.504;13.734;2024-02-23T06:56:58;9.60;85.30
16347;DHT22;8283;48.504;13.734;2024-02-23T06:59:17;9.60;85.30
16347;DHT22;8283;48.504;13.734;2024-02-23T07:01:47;9.60;85.30
16347;DHT22;8283;48.504;13.734;2024-02-23T07:04:07;9.60;85.80
16347;DHT22;8283;48.504;13.734;2024-02-23T07:06:26;9.50;85.40
16347;DHT22;8283;48.504;13.734;2024-02-23T07:08:48;9.50;85.40
16347;DHT22;8283;48.504;13.734;2024-02-23T07:11:07;9.50;85.60
16347;DHT22;8283;48.504;13.734;2024-02-23T07:13:26;9.50;85.70
16347;DHT22;8283;48.504;13.734;2024-02-23T07:15:45;9.50;85.70
16347;DHT22;8283;48.504;13.734;2024-02-23T07:18:05;9.50;85.50
16347;DHT22;8283;48.504;13.734;2024-02-23T07:20:24;9.50;85.50
16347;DHT22;8283;48.504;13.734;2024-02-23T07:22:44;9.50;85.60
16347;DHT22;8283;48.504;13.734;2024-02-23T07:25:07;9.50;85.60
16347;DHT22;8283;48.504;13.734;2024-02-23T07:27:27;9.60;85.90
16347;DHT22;8283;48.504;13.734;2024-02-23T07:29:46;9.60;86.00
16347;DHT22;8283;48.504;13.734;2024-02-23T07:32:05;9.60;86.20
16347;DHT22;8283;48.504;13.734;2024-02-23T07:34:25;9.70;86.40
16347;DHT22;8283;48.504;13.734;2024-02-23T07:36:44;9.70;86.50
16347;DHT22;8283;48.504;13.734;2024-02-23T07:39:04;9.80;86.60
16347;DHT22;8283;48.504;13.734;2024-02-23T07:41:23;9.80;86.70
16347;DHT22;8283;48.504;13.734;2024-02-23T07:43:43;9.90;86.90
16347;DHT22;8283;48.504;13.734;2024-02-23T07:46:03;9.90;87.10
16347;DHT22;8283;48.504;13.734;2024-02-23T07:48:24;9.90;87.10
16347;DHT22;8283;48.504;13.734;2024-02-23T07:50:43;10.00;87.20
16347;DHT22;8283;48.504;13.734;2024-02-23T07:53:03;10.10;87.30
16347;DHT22;8283;48.504;13.734;2024-02-23T07:55:23;10.20;87.50
16347;DHT22;8283;48.504;13.734;2024-02-23T07:57:42;10.20;87.60
16347;DHT22;8283;48.504;13.734;2024-02-23T08:00:02;10.10;87.50
16347;DHT22;8283;48.504;13.734;2024-02-23T08:02:31;10.40;87.80
16347;DHT22;8283;48.504;13.734;2024-02-23T08:04:51;10.40;87.80
16347;DHT22;8283;48.504;13.734;2024-02-23T08:07:11;10.50;88.00
16347;DHT22;8283;48.504;13.734;2024-02-23T08:09:30;10.70;88.00
16347;DHT22;8283;48.504;13.734;2024-02-23T08:11:50;10.70;88.00
16347;DHT22;8283;48.504;13.734;2024-02-23T08:14:10;10.80;88.00
16347;DHT22;8283;48.504;13.734;2024-02-23T08:16:30;10.90;87.80
16347;DHT22;8283;48.504;13.734;2024-02-23T08:18:49;11.00;87.80
16347;DHT22;8283;48.504;13.734;2024-02-23T08:21:10;11.10;87.80
16347;DHT22;8283;48.504;13.734;2024-02-23T08:23:29;11.10;87.50
16347;DHT22;8283;48.504;13.734;2024-02-23T08:25:49;11.20;87.20
16347;DHT22;8283;48.504;13.734;2024-02-23T08:28:09;11.20;87.10
16347;DHT22;8283;48.504;13.734;2024-02-23T08:30:28;11.30;86.90
16347;DHT22;8283;48.504;13.734;2024-02-23T08:32:48;11.30;86.80
16347;DHT22;8283;48.504;13.734;2024-02-23T08:35:07;11.40;86.70
16347;DHT22;8283;48.504;13.734;2024-02-23T08:37:27;11.40;86.60
16347;DHT22;8283;48.504;13.734;2024-02-23T08:39:46;11.50;86.40
16347;DHT22;8283;48.504;13.734;2024-02-23T08:42:06;11.50;86.50
16347;DHT22;8283;48.504;13.734;2024-02-23T08:44:25;11.60;86.60
16347;DHT22;8283;48.504;13.734;2024-02-23T08:46:44;12.50;87.10
16347;DHT22;8283;48.504;13.734;2024-02-23T08:49:03;11.80;86.60
16347;DHT22;8283;48.504;13.734;2024-02-23T08:51:23;11.70;86.30
16347;DHT22;8283;48.504;13.734;2024-02-23T08:53:42;11.80;86.30
16347;DHT22;8283;48.504;13.734;2024-02-23T08:56:02;11.80;86.20
16347;DHT22;8283;48.504;13.734;2024-02-23T08:58:22;11.90;86.10
16347;DHT22;8283;48.504;13.734;2024-02-23T09:00:41;12.00;86.10
16347;DHT22;8283;48.504;13.734;2024-02-23T09:03:00;12.00;85.90
16347;DHT22;8283;48.504;13.734;2024-02-23T09:05:20;12.00;85.80
16347;DHT22;8283;48.504;13.734;2024-02-23T09:07:40;12.10;85.60
16347;DHT22;8283;48.504;13.734;2024-02-23T09:09:59;12.10;85.10
16347;DHT22;8283;48.504;13.734;2024-02-23T09:12:18;12.20;85.20
16347;DHT22;8283;48.504;13.734;2024-02-23T09:14:38;11.70;84.90
16347;DHT22;8283;48.504;13.734;2024-02-23T09:16:57;12.30;85.50
16347;DHT22;8283;48.504;13.734;2024-02-23T09:19:17;12.30;85.70
16347;DHT22;8283;48.504;13.734;2024-02-23T09:21:37;12.40;85.70
16347;DHT22;8283;48.504;13.734;2024-02-23T09:23:57;12.50;85.80
16347;DHT22;8283;48.504;13.734;2024-02-23T09:26:16;12.60;85.90
16347;DHT22;8283;48.504;13.734;2024-02-23T09:28:37;12.70;86.00
16347;DHT22;8283;48.504;13.734;2024-02-23T09:30:57;12.80;85.60
16347;DHT22;8283;48.504;13.734;2024-02-23T09:33:17;12.90;85.70
16347;DHT22;8283;48.504;13.734;2024-02-23T09:35:36;13.10;85.40
16347;DHT22;8283;48.504;13.734;2024-02-23T09:37:56;13.20;84.90
16347;DHT22;8283;48.504;13.734;2024-02-23T09:40:16;13.30;84.50
16347;DHT22;8283;48.504;13.734;2024-02-23T09:42:35;13.40;84.20
16347;DHT22;8283;48.504;13.734;2024-02-23T09:45:00;13.50;84.00
16347;DHT22;8283;48.504;13.734;2024-02-23T09:47:20;13.50;83.00
16347;DHT22;8283;48.504;13.734;2024-02-23T09:49:40;13.60;84.00
16347;DHT22;8283;48.504;13.734;2024-02-23T09:52:00;13.60;82.80
16347;DHT22;8283;48.504;13.734;2024-02-23T09:54:20;13.60;82.60
16347;DHT22;8283;48.504;13.734;2024-02-23T09:56:39;13.70;82.70
16347;DHT22;8283;48.504;13.734;2024-02-23T09:59:01;13.70;82.70
16347;DHT22;8283;48.504;13.734;2024-02-23T10:01:27;13.70;82.40
16347;DHT22;8283;48.504;13.734;2024-02-23T10:03:47;13.80;81.50
16347;DHT22;8283;48.504;13.734;2024-02-23T10:06:07;13.80;82.10
16347;DHT22;8283;48.504;13.734;2024-02-23T10:08:27;13.80;82.00
16347;DHT22;8283;48.504;13.734;2024-02-23T10:10:46;13.80;81.20
16347;DHT22;8283;48.504;13.734;2024-02-23T10:13:17;13.90;80.80
16347;DHT22;8283;48.504;13.734;2024-02-23T10:15:37;13.70;80.60
16347;DHT22;8283;48.504;13.734;2024-02-23T10:17:57;13.70;80.60
16347;DHT22;8283;48.504;13.734;2024-02-23T10:20:16;13.70;80.50
16347;DHT22;8283;48.504;13.734;2024-02-23T10:22:36;13.70;80.60
16347;DHT22;8283;48.504;13.734;2024-02-23T10:24:56;13.70;80.50
16347;DHT22;8283;48.504;13.734;2024-02-23T10:27:16;13.60;80.50
16347;DHT22;8283;48.504;13.734;2024-02-23T10:29:36;13.70;80.50
16347;DHT22;8283;48.504;13.734;2024-02-23T10:31:57;13.70;80.40
16347;DHT22;8283;48.504;13.734;2024-02-23T10:34:19;13.70;80.00
16347;DHT22;8283;48.504;13.734;2024-02-23T10:36:41;13.80;80.20
16347;DHT22;8283;48.504;13.734;2024-02-23T10:39:02;13.80;80.20
16347;DHT22;8283;48.504;13.734;2024-02-23T10:41:23;13.90;80.30
16347;DHT22;8283;48.504;13.734;2024-02-23T10:43:48;13.90;80.40
16347;DHT22;8283;48.504;13.734;2024-02-23T10:46:08;14.00;79.20
16347;DHT22;8283;48.504;13.734;2024-02-23T10:48:32;14.00;79.90
16347;DHT22;8283;48.504;13.734;2024-02-23T10:50:52;14.00;80.00
16347;DHT22;8283;48.504;13.734;2024-02-23T10:53:11;14.10;79.60
16347;DHT22;8283;48.504;13.734;2024-02-23T10:55:32;14.10;79.40
16347;DHT22;8283;48.504;13.734;2024-02-23T10:57:53;14.10;76.40
16347;DHT22;8283;48.504;13.734;2024-02-23T11:00:14;14.10;79.00
16347;DHT22;8283;48.504;13.734;2024-02-23T11:02:43;14.10;78.80
16347;DHT22;8283;48.504;13.734;2024-02-23T11:05:02;14.10;78.70
16347;DHT22;8283;48.504;13.734;2024-02-23T11:07:23;14.10;79.20
16347;DHT22;8283;48.504;13.734;2024-02-23T11:09:51;14.10;74.20
16347;DHT22;8283;48.504;13.734;2024-02-23T11:12:11;14.00;77.30
16347;DHT22;8283;48.504;13.734;2024-02-23T11:14:44;13.90;77.70
16347;DHT22;8283;48.504;13.734;2024-02-23T11:17:03;13.90;76.90
16347;DHT22;8283;48.504;13.734;2024-02-23T11:19:32;13.80;77.60
16347;DHT22;8283;48.504;13.734;2024-02-23T11:21:52;13.70;76.30
16347;DHT22;8283;48.504;13.734;2024-02-23T11:24:15;13.60;77.30
16347;DHT22;8283;48.504;13.734;2024-02-23T11:26:37;13.50;76.70
16347;DHT22;8283;48.504;13.734;2024-02-23T11:28:56;13.50;77.40
16347;DHT22;8283;48.504;13.734;2024-02-23T11:31:20;13.40;77.90
16347;DHT22;8283;48.504;13.734;2024-02-23T11:33:39;13.40;77.30
16347;DHT22;8283;48.504;13.734;2024-02-23T11:36:08;13.40;77.60
16347;DHT22;8283;48.504;13.734;2024-02-23T11:38:27;13.40;76.10
16347;DHT22;8283;48.504;13.734;2024-02-23T11:40:48;13.30;77.10
16347;DHT22;8283;48.504;13.734;2024-02-23T11:43:08;13.30;77.30
16347;DHT22;8283;48.504;13.734;2024-02-23T11:45:30;13.30;77.00
16347;DHT22;8283;48.504;13.734;2024-02-23T11:47:49;13.20;76.90
16347;DHT22;8283;48.504;13.734;2024-02-23T11:50:09;13.20;77.40
16347;DHT22;8283;48.504;13.734;2024-02-23T11:52:29;13.20;77.50
16347;DHT22;8283;48.504;13.734;2024-02-23T11:54:49;13.20;77.70
16347;DHT22;8283;48.504;13.734;2024-02-23T11:57:09;12.80;77.60
16347;DHT22;8283;48.504;13.734;2024-02-23T11:59:28;13.10;78.00
16347;DHT22;8283;48.504;13.734;2024-02-23T12:01:47;12.70;77.80
16347;DHT22;8283;48.504;13.734;2024-02-23T12:04:07;13.20;78.00
16347;DHT22;8283;48.504;13.734;2024-02-23T12:06:27;13.20;77.80
16347;DHT22;8283;48.504;13.734;2024-02-23T12:08:49;13.20;77.60
16347;DHT22;8283;48.504;13.734;2024-02-23T12:11:09;13.10;77.40
16347;DHT22;8283;48.504;13.734;2024-02-23T12:13:29;13.10;77.30
16347;DHT22;8283;48.504;13.734;2024-02-23T12:15:52;13.10;77.50
16347;DHT22;8283;48.504;13.734;2024-02-23T12:18:13;13.10;77.30
16347;DHT22;8283;48.504;13.734;2024-02-23T12:20:33;13.10;76.60
16347;DHT22;8283;48.504;13.734;2024-02-23T12:22:57;13.10;76.60
16347;DHT22;8283;48.504;13.734;2024-02-23T12:25:17;13.00;76.20
16347;DHT22;8283;48.504;13.734;2024-02-23T12:27:36;13.00;76.50
16347;DHT22;8283;48.504;13.734;2024-02-23T12:29:56;13.00;76.80
16347;DHT22;8283;48.504;13.734;2024-02-23T12:32:20;13.00;76.70
16347;DHT22;8283;48.504;13.734;2024-02-23T12:34:39;13.00;76.20
16347;DHT22;8283;48.504;13.734;2024-02-23T12:36:58;13.00;76.60
16347;DHT22;8283;48.504;13.734;2024-02-23T12:39:18;13.00;76.70
16347;DHT22;8283;48.504;13.734;2024-02-23T12:41:38;12.90;76.10
16347;DHT22;8283;48.504;13.734;2024-02-23T12:43:58;12.80;75.70
16347;DHT22;8283;48.504;13.734;2024-02-23T12:46:17;12.80;76.10
16347;DHT22;8283;48.504;13.734;2024-02-23T12:48:37;12.70;76.20
16347;DHT22;8283;48.504;13.734;2024-02-23T12:50:56;12.70;76.40
16347;DHT22;8283;48.504;13.734;2024-02-23T12:53:40;12.60;76.50
16347;DHT22;8283;48.504;13.734;2024-02-23T12:56:05;12.60;75.80
16347;DHT22;8283;48.504;13.734;2024-02-23T12:58:24;12.60;76.30
16347;DHT22;8283;48.504;13.734;2024-02-23T13:00:44;12.60;76.70
16347;DHT22;8283;48.504;13.734;2024-02-23T13:03:03;12.50;76.40
16347;DHT22;8283;48.504;13.734;2024-02-23T13:05:23;12.50;76.10
16347;DHT22;8283;48.504;13.734;2024-02-23T13:07:43;12.40;76.00
16347;DHT22;8283;48.504;13.734;2024-02-23T13:10:03;12.30;76.10
16347;DHT22;8283;48.504;13.734;2024-02-23T13:12:24;12.30;76.30
16347;DHT22;8283;48.504;13.734;2024-02-23T13:14:44;12.20;76.20
16347;DHT22;8283;48.504;13.734;2024-02-23T13:17:03;12.20;76.00
16347;DHT22;8283;48.504;13.734;2024-02-23T13:19:23;12.00;75.70
16347;DHT22;8283;48.504;13.734;2024-02-23T13:21:42;11.90;75.50
16347;DHT22;8283;48.504;13.734;2024-02-23T13:24:01;11.70;75.50
16347;DHT22;8283;48.504;13.734;2024-02-23T13:26:21;11.60;75.70
16347;DHT22;8283;48.504;13.734;2024-02-23T13:28:44;11.50;76.00
16347;DHT22;8283;48.504;13.734;2024-02-23T13:31:03;11.40;76.10
16347;DHT22;8283;48.504;13.734;2024-02-23T13:33:23;11.40;76.40
16347;DHT22;8283;48.504;13.734;2024-02-23T13:35:43;11.30;76.60
16347;DHT22;8283;48.504;13.734;2024-02-23T13:38:02;11.30;76.50
16347;DHT22;8283;48.504;13.734;2024-02-23T13:40:25;11.20;76.30
16347;DHT22;8283;48.504;13.734;2024-02-23T13:42:45;11.20;76.30
16347;DHT22;8283;48.504;13.734;2024-02-23T13:45:12;11.10;76.20
16347;DHT22;8283;48.504;13.734;2024-02-23T13:47:34;11.00;76.40
16347;DHT22;8283;48.504;13.734;2024-02-23T13:49:53;11.00;76.60
16347;DHT22;8283;48.504;13.734;2024-02-23T13:52:13;10.90;76.80
16347;DHT22;8283;48.504;13.734;2024-02-23T13:54:32;10.90;76.80
16347;DHT22;8283;48.504;13.734;2024-02-23T13:56:51;10.90;76.80
16347;DHT22;8283;48.504;13.734;2024-02-23T13:59:10;10.90;76.90
16347;DHT22;8283;48.504;13.734;2024-02-23T14:01:30;10.80;77.00
16347;DHT22;8283;48.504;13.734;2024-02-23T14:03:49;10.90;77.30
16347;DHT22;8283;48.504;13.734;2024-02-23T14:06:08;10.90;77.50
16347;DHT22;8283;48.504;13.734;2024-02-23T14:08:27;10.90;77.50
16347;DHT22;8283;48.504;13.734;2024-02-23T14:10:46;10.90;77.70
16347;DHT22;8283;48.504;13.734;2024-02-23T14:13:06;10.90;77.80
16347;DHT22;8283;48.504;13.734;2024-02-23T14:15:25;10.90;78.00
16347;DHT22;8283;48.504;13.734;2024-02-23T14:17:46;10.90;77.90
16347;DHT22;8283;48.504;13.734;2024-02-23T14:20:06;10.90;77.80
16347;DHT22;8283;48.504;13.734;2024-02-23T14:22:25;11.90;78.30
16347;DHT22;8283;48.504;13.734;2024-02-23T14:24:47;10.90;77.70
16347;DHT22;8283;48.504;13.734;2024-02-23T14:27:06;10.90;77.80
16347;DHT22;8283;48.504;13.734;2024-02-23T14:29:26;10.90;77.90
16347;DHT22;8283;48.504;13.734;2024-02-23T14:31:46;10.80;77.90
16347;DHT22;8283;48.504;13.734;2024-02-23T14:34:05;10.80;77.70
16347;DHT22;8283;48.504;13.734;2024-02-23T14:36:25;10.80;77.70
16347;DHT22;8283;48.504;13.734;2024-02-23T14:38:45;10.80;77.70
16347;DHT22;8283;48.504;13.734;2024-02-23T14:41:05;10.80;77.80
16347;DHT22;8283;48.504;13.734;2024-02-23T14:43:28;10.70;77.60
16347;DHT22;8283;48.504;13.734;2024-02-23T14:45:50;10.70;77.60
16347;DHT22;8283;48.504;13.734;2024-02-23T14:48:11;10.70;77.70